createdAt,value
2022-12-31T00:00:08.798Z,9.49
2022-12-31T00:02:36.253Z,9.10
2022-12-31T00:05:04.553Z,9.32
2022-12-31T00:09:57.596Z,8.58
2022-12-31T00:12:24.850Z,8.69
2022-12-31T00:14:51.460Z,8.87
2022-12-31T00:17:18.032Z,9.05
2022-12-31T00:19:44.638Z,9.10
2022-12-31T00:22:11.205Z,8.80
2022-12-31T00:24:37.853Z,8.92
2022-12-31T00:27:04.500Z,8.47
2022-12-31T00:29:31.091Z,8.61
2022-12-31T00:31:57.702Z,8.71
2022-12-31T00:34:24.369Z,8.70
2022-12-31T00:36:51.011Z,8.02
2022-12-31T00:39:17.606Z,8.00
2022-12-31T00:41:44.308Z,8.24
2022-12-31T00:44:14.595Z,8.59
2022-12-31T00:49:07.082Z,8.84
2022-12-31T00:51:33.825Z,8.90
2022-12-31T00:54:00.551Z,8.85
2022-12-31T00:56:29.277Z,8.22
2022-12-31T00:58:56.568Z,7.82
2022-12-31T01:01:26.713Z,8.18
2022-12-31T01:03:56.325Z,8.60
2022-12-31T01:06:22.991Z,8.72
2022-12-31T01:08:50.759Z,8.98
2022-12-31T01:11:24.017Z,8.92
2022-12-31T01:13:50.485Z,9.25
2022-12-31T01:16:18.665Z,9.21
2022-12-31T01:18:45.374Z,9.03
2022-12-31T01:21:13.236Z,9.23
2022-12-31T01:23:40.668Z,9.27
2022-12-31T01:26:09.478Z,9.44
2022-12-31T01:28:36.401Z,9.25
2022-12-31T01:31:08.180Z,9.17
2022-12-31T01:33:35.768Z,9.09
2022-12-31T01:36:05.183Z,8.90
2022-12-31T01:38:32.035Z,8.73
2022-12-31T01:40:58.675Z,8.79
2022-12-31T01:43:56.199Z,8.89
2022-12-31T01:46:51.381Z,8.88
2022-12-31T01:49:23.947Z,8.87
2022-12-31T01:52:09.136Z,9.13
2022-12-31T01:54:40.034Z,9.42
2022-12-31T01:57:08.196Z,9.37
2022-12-31T01:59:34.856Z,9.11
2022-12-31T02:02:01.905Z,9.08
2022-12-31T02:04:29.333Z,9.29
2022-12-31T02:07:07.929Z,9.41
2022-12-31T02:09:38.270Z,9.36
2022-12-31T02:12:06.091Z,9.34
2022-12-31T02:14:37.308Z,9.46
2022-12-31T02:17:09.754Z,9.43
2022-12-31T02:19:41.985Z,9.55
2022-12-31T02:22:39.571Z,9.82
2022-12-31T02:25:25.191Z,9.65
2022-12-31T02:28:12.004Z,9.68
2022-12-31T02:30:40.467Z,9.57
2022-12-31T02:33:32.372Z,9.83
2022-12-31T02:36:03.235Z,9.98
2022-12-31T02:38:38.365Z,9.92
2022-12-31T02:41:05.108Z,9.74
2022-12-31T02:43:31.825Z,9.82
2022-12-31T02:46:10.986Z,9.88
2022-12-31T02:48:37.789Z,9.80
2022-12-31T02:51:20.656Z,9.88
2022-12-31T02:54:05.277Z,9.64
2022-12-31T02:56:45.492Z,9.84
2022-12-31T02:59:41.790Z,9.78
2022-12-31T03:02:14.866Z,9.81
2022-12-31T03:04:49.806Z,9.87
2022-12-31T03:07:22.712Z,9.92
2022-12-31T03:09:49.962Z,10.03
2022-12-31T03:12:37.503Z,10.26
2022-12-31T03:15:06.802Z,10.30
2022-12-31T03:17:34.193Z,10.24
2022-12-31T03:20:19.536Z,9.64
2022-12-31T03:22:46.157Z,9.81
2022-12-31T03:25:35.294Z,9.96
2022-12-31T03:28:04.445Z,10.05
2022-12-31T03:30:32.067Z,10.18
2022-12-31T03:32:59.294Z,10.31
2022-12-31T03:35:27.579Z,10.39
2022-12-31T03:37:54.687Z,10.48
2022-12-31T03:40:23.473Z,10.56
2022-12-31T03:42:50.196Z,10.65
2022-12-31T03:45:16.851Z,10.80
2022-12-31T03:47:43.692Z,10.89
2022-12-31T03:50:12.397Z,10.71
2022-12-31T03:52:39.368Z,10.67
2022-12-31T03:55:06.982Z,10.64
2022-12-31T03:57:33.931Z,10.65
2022-12-31T04:00:00.577Z,10.93
2022-12-31T04:02:29.186Z,11.09
2022-12-31T04:04:56.219Z,11.14
2022-12-31T04:07:23.096Z,11.29
2022-12-31T04:09:49.984Z,11.49
2022-12-31T04:12:16.657Z,11.60
2022-12-31T04:14:43.403Z,11.71
2022-12-31T04:17:10.150Z,11.72
2022-12-31T04:19:37.699Z,11.86
2022-12-31T04:22:04.790Z,12.03
2022-12-31T04:24:31.495Z,12.13
2022-12-31T04:27:03.575Z,12.24
2022-12-31T04:29:32.083Z,12.41
2022-12-31T04:31:58.731Z,12.48
2022-12-31T04:34:25.379Z,12.48
2022-12-31T04:36:51.984Z,12.51
2022-12-31T04:39:18.589Z,12.59
2022-12-31T04:41:45.187Z,12.67
2022-12-31T04:44:12.684Z,12.59
2022-12-31T04:46:39.443Z,12.66
2022-12-31T04:49:06.116Z,12.59
2022-12-31T04:51:32.899Z,12.65
2022-12-31T04:54:00.110Z,12.65
2022-12-31T04:56:28.271Z,12.65
2022-12-31T04:58:55.155Z,12.63
2022-12-31T05:01:22.744Z,12.77
2022-12-31T05:03:49.744Z,12.83
2022-12-31T05:06:22.742Z,12.71
2022-12-31T05:08:50.217Z,12.81
2022-12-31T05:11:17.754Z,12.78
2022-12-31T05:13:44.928Z,12.84
2022-12-31T05:16:11.698Z,12.81
2022-12-31T05:18:38.641Z,12.82
2022-12-31T05:21:06.421Z,12.59
2022-12-31T05:23:33.056Z,12.54
2022-12-31T05:25:59.751Z,12.62
2022-12-31T05:28:26.718Z,12.68
2022-12-31T05:30:53.539Z,12.69
2022-12-31T05:33:20.712Z,12.64
2022-12-31T05:35:47.485Z,12.51
2022-12-31T05:38:14.114Z,12.56
2022-12-31T05:40:40.709Z,12.62
2022-12-31T05:43:07.725Z,12.67
2022-12-31T05:45:34.392Z,12.39
2022-12-31T05:48:01.180Z,12.35
2022-12-31T05:50:27.860Z,12.30
2022-12-31T05:52:54.501Z,12.37
2022-12-31T05:55:21.204Z,12.39
2022-12-31T05:57:47.812Z,12.32
2022-12-31T06:00:15.025Z,12.49
2022-12-31T06:02:41.693Z,12.39
2022-12-31T06:05:08.805Z,12.32
2022-12-31T06:07:35.410Z,12.34
2022-12-31T06:10:02.036Z,12.46
2022-12-31T06:12:28.624Z,12.51
2022-12-31T06:14:55.230Z,12.48
2022-12-31T06:17:22.579Z,12.62
2022-12-31T06:19:49.197Z,12.62
2022-12-31T06:22:16.208Z,12.64
2022-12-31T06:24:42.804Z,12.69
2022-12-31T06:27:09.576Z,12.64
2022-12-31T06:29:36.329Z,12.68
2022-12-31T06:32:03.023Z,12.64
2022-12-31T06:34:29.685Z,12.78
2022-12-31T06:36:56.369Z,12.77
2022-12-31T06:39:23.047Z,12.81
2022-12-31T06:41:49.648Z,12.85
2022-12-31T06:44:16.362Z,12.98
2022-12-31T06:46:42.994Z,13.01
2022-12-31T06:49:09.716Z,13.08
2022-12-31T06:51:36.352Z,13.14
2022-12-31T06:54:02.956Z,13.22
2022-12-31T06:56:34.304Z,13.25
2022-12-31T06:59:02.981Z,13.16
2022-12-31T07:01:41.793Z,13.17
2022-12-31T07:04:45.667Z,12.96
2022-12-31T07:07:22.125Z,12.98
2022-12-31T07:09:58.851Z,12.96
2022-12-31T07:13:10.237Z,12.81
2022-12-31T07:15:59.211Z,12.81
2022-12-31T07:18:40.775Z,12.68
2022-12-31T07:21:16.396Z,12.80
2022-12-31T07:23:43.785Z,12.87
2022-12-31T07:26:34.891Z,12.79
2022-12-31T07:29:13.506Z,12.86
2022-12-31T07:32:13.654Z,12.97
2022-12-31T07:34:58.975Z,13.02
2022-12-31T07:37:41.738Z,13.04
2022-12-31T07:41:01.606Z,13.17
2022-12-31T07:43:42.841Z,13.17
2022-12-31T07:46:22.307Z,12.78
2022-12-31T07:48:49.246Z,12.63
2022-12-31T07:51:16.399Z,12.54
2022-12-31T07:53:42.995Z,12.45
2022-12-31T07:56:10.393Z,12.16
2022-12-31T07:58:39.969Z,12.02
2022-12-31T08:01:15.992Z,12.03
2022-12-31T08:04:22.020Z,12.26
2022-12-31T08:07:19.057Z,12.32
2022-12-31T08:10:12.568Z,12.30
2022-12-31T08:12:43.253Z,12.44
2022-12-31T08:15:15.851Z,12.53
2022-12-31T08:17:43.340Z,12.74
2022-12-31T08:20:17.440Z,12.69
2022-12-31T08:23:14.171Z,12.61
2022-12-31T08:26:06.543Z,12.48
2022-12-31T08:28:35.999Z,12.45
2022-12-31T08:31:09.241Z,12.63
2022-12-31T08:33:42.595Z,12.72
2022-12-31T08:36:12.048Z,12.78
2022-12-31T08:39:08.131Z,12.85
2022-12-31T08:41:47.215Z,12.95
2022-12-31T08:44:16.419Z,12.96
2022-12-31T08:47:07.929Z,12.95
2022-12-31T08:49:35.571Z,12.73
2022-12-31T08:52:03.300Z,12.80
2022-12-31T08:54:30.156Z,12.83
2022-12-31T08:57:37.475Z,13.00
2022-12-31T09:00:11.854Z,13.01
2022-12-31T09:02:48.063Z,13.04
2022-12-31T09:05:25.237Z,13.02
2022-12-31T09:08:09.190Z,13.18
2022-12-31T09:10:56.329Z,13.14
2022-12-31T09:13:57.423Z,13.42
2022-12-31T09:16:32.327Z,13.51
2022-12-31T09:18:58.976Z,13.58
2022-12-31T09:21:25.701Z,13.57
2022-12-31T09:23:52.538Z,13.65
2022-12-31T09:26:47.015Z,13.76
2022-12-31T09:29:43.546Z,13.66
2022-12-31T09:32:48.053Z,13.57
2022-12-31T09:35:30.027Z,13.59
2022-12-31T09:38:07.924Z,13.57
2022-12-31T09:40:46.918Z,13.69
2022-12-31T09:43:41.400Z,13.67
2022-12-31T09:46:34.897Z,13.49
2022-12-31T09:49:10.179Z,13.57
2022-12-31T09:52:04.001Z,13.53
2022-12-31T09:54:43.897Z,13.57
2022-12-31T09:57:33.532Z,13.78
2022-12-31T10:00:18.680Z,13.89
2022-12-31T10:02:56.578Z,14.44
2022-12-31T10:05:59.625Z,14.55
2022-12-31T10:08:29.264Z,15.00
2022-12-31T10:11:05.185Z,15.08
2022-12-31T10:13:56.321Z,15.26
2022-12-31T10:16:49.504Z,15.51
2022-12-31T10:19:28.175Z,15.54
2022-12-31T10:22:06.955Z,15.61
2022-12-31T10:24:39.597Z,15.70
2022-12-31T10:27:16.535Z,15.89
2022-12-31T10:30:02.131Z,16.03
2022-12-31T10:33:00.644Z,16.15
2022-12-31T10:35:54.112Z,16.21
2022-12-31T10:38:20.660Z,16.40
2022-12-31T10:41:06.000Z,16.80
2022-12-31T10:43:57.193Z,17.85
2022-12-31T10:46:48.425Z,18.70
2022-12-31T10:49:50.180Z,19.04
2022-12-31T10:52:28.473Z,18.92
2022-12-31T10:55:26.012Z,19.24
2022-12-31T10:58:15.585Z,19.09
2022-12-31T11:01:00.887Z,19.18
2022-12-31T11:04:03.400Z,19.49
2022-12-31T11:07:02.913Z,19.54
2022-12-31T11:09:53.516Z,19.54
2022-12-31T11:12:32.244Z,19.57
2022-12-31T11:15:13.907Z,19.47
2022-12-31T11:18:04.403Z,19.53
2022-12-31T11:20:55.990Z,19.85
2022-12-31T11:23:41.000Z,19.74
2022-12-31T11:26:27.470Z,19.66
2022-12-31T11:28:59.249Z,19.61
2022-12-31T11:31:37.963Z,19.26
2022-12-31T11:34:13.196Z,18.99
2022-12-31T11:37:01.612Z,18.89
2022-12-31T11:39:59.815Z,19.06
2022-12-31T11:42:26.349Z,19.46
2022-12-31T11:44:59.746Z,19.27
2022-12-31T11:47:32.414Z,19.73
2022-12-31T11:50:25.976Z,19.90
2022-12-31T11:53:23.960Z,19.96
2022-12-31T11:55:53.619Z,20.51
2022-12-31T11:58:22.427Z,20.44
2022-12-31T12:01:00.408Z,20.33
2022-12-31T12:03:27.828Z,20.23
2022-12-31T12:05:57.145Z,20.12
2022-12-31T12:08:25.405Z,19.83
2022-12-31T12:11:00.381Z,19.76
2022-12-31T12:13:27.916Z,20.05
2022-12-31T12:15:58.224Z,20.85
2022-12-31T12:18:40.868Z,21.25
2022-12-31T12:21:20.977Z,21.10
2022-12-31T12:23:57.740Z,21.59
2022-12-31T12:26:32.968Z,21.71
2022-12-31T12:29:08.572Z,22.20
2022-12-31T12:31:36.256Z,22.91
2022-12-31T12:34:04.075Z,23.25
2022-12-31T12:36:31.597Z,23.95
2022-12-31T12:39:06.408Z,24.47
2022-12-31T12:41:33.348Z,26.68
2022-12-31T12:44:09.103Z,28.17
2022-12-31T12:46:47.836Z,27.66
2022-12-31T12:49:40.771Z,25.15
2022-12-31T12:52:36.588Z,24.64
2022-12-31T12:55:11.864Z,24.49
2022-12-31T12:58:00.168Z,23.98
2022-12-31T13:00:54.358Z,24.06
2022-12-31T13:06:49.533Z,23.86
2022-12-31T13:09:25.010Z,24.63
2022-12-31T13:11:58.978Z,24.07
2022-12-31T13:14:46.400Z,23.67
2022-12-31T13:17:22.112Z,23.77
2022-12-31T13:19:48.671Z,23.86
2022-12-31T13:22:42.610Z,23.70
2022-12-31T13:25:34.588Z,23.40
2022-12-31T13:28:05.394Z,23.45
2022-12-31T13:30:54.507Z,23.36
2022-12-31T13:33:27.905Z,23.02
2022-12-31T13:35:58.920Z,22.71
2022-12-31T13:38:40.673Z,22.73
2022-12-31T13:41:28.894Z,22.68
2022-12-31T13:44:01.440Z,22.49
2022-12-31T13:46:43.073Z,22.34
2022-12-31T13:49:31.614Z,21.93
2022-12-31T13:51:58.199Z,21.56
2022-12-31T13:54:36.071Z,21.53
2022-12-31T13:57:23.590Z,21.52
2022-12-31T13:59:57.978Z,21.37
2022-12-31T14:02:48.019Z,21.52
2022-12-31T14:05:23.336Z,21.29
2022-12-31T14:07:57.144Z,21.32
2022-12-31T14:10:52.881Z,21.38
2022-12-31T14:13:34.649Z,21.30
2022-12-31T14:16:01.595Z,21.15
2022-12-31T14:18:46.023Z,21.11
2022-12-31T14:21:40.687Z,20.77
2022-12-31T14:24:21.540Z,20.81
2022-12-31T14:26:52.672Z,20.81
2022-12-31T14:29:28.504Z,20.63
2022-12-31T14:32:08.236Z,20.53
2022-12-31T14:34:50.012Z,20.49
2022-12-31T14:37:54.017Z,20.32
2022-12-31T14:40:49.327Z,20.31
2022-12-31T14:44:00.829Z,20.15
2022-12-31T14:46:56.292Z,20.16
2022-12-31T14:49:56.709Z,20.12
2022-12-31T14:52:35.224Z,19.55
2022-12-31T14:55:51.393Z,19.66
2022-12-31T14:58:29.524Z,19.56
2022-12-31T15:01:04.487Z,19.53
2022-12-31T15:03:31.120Z,19.45
2022-12-31T15:06:00.350Z,19.39
2022-12-31T15:08:51.845Z,19.28
2022-12-31T15:11:23.860Z,19.22
2022-12-31T15:14:16.776Z,19.20
2022-12-31T15:16:43.382Z,19.08
2022-12-31T15:19:18.926Z,18.92
2022-12-31T15:22:00.457Z,18.81
2022-12-31T15:24:30.851Z,18.63
2022-12-31T15:27:00.920Z,18.61
2022-12-31T15:29:45.747Z,18.61
2022-12-31T15:32:20.214Z,18.34
2022-12-31T15:34:47.023Z,17.80
2022-12-31T15:37:35.400Z,17.64
2022-12-31T15:40:24.996Z,17.48
2022-12-31T15:43:13.907Z,16.96
2022-12-31T15:45:42.544Z,17.06
2022-12-31T15:48:19.805Z,17.25
2022-12-31T15:50:47.532Z,16.49
2022-12-31T15:53:42.733Z,16.56
2022-12-31T15:56:18.554Z,16.31
2022-12-31T15:58:47.458Z,15.50
2022-12-31T16:01:44.551Z,15.60
2022-12-31T16:04:21.808Z,15.94
2022-12-31T16:06:51.222Z,16.03
2022-12-31T16:09:27.538Z,15.36
2022-12-31T16:11:56.139Z,15.71
2022-12-31T16:14:38.543Z,15.84
2022-12-31T16:17:06.310Z,15.73
2022-12-31T16:19:51.988Z,15.48
2022-12-31T16:22:36.424Z,15.29
2022-12-31T16:25:30.089Z,15.55
2022-12-31T16:27:53.396Z,15.68
2022-12-31T16:30:27.004Z,15.65
2022-12-31T16:32:58.026Z,15.34
2022-12-31T16:35:32.123Z,15.30
2022-12-31T16:38:08.043Z,15.43
2022-12-31T16:40:35.464Z,15.38
2022-12-31T16:43:02.120Z,15.32
2022-12-31T16:45:36.974Z,15.35
2022-12-31T16:48:17.283Z,15.24
2022-12-31T16:50:50.805Z,15.05
2022-12-31T16:53:21.076Z,15.19
2022-12-31T16:55:57.153Z,15.15
2022-12-31T16:58:36.007Z,15.14
2022-12-31T17:01:23.577Z,15.15
2022-12-31T17:03:58.589Z,15.12
2022-12-31T17:06:28.176Z,14.89
2022-12-31T17:09:00.757Z,14.83
2022-12-31T17:11:33.237Z,14.74
2022-12-31T17:14:06.163Z,14.76
2022-12-31T17:16:34.911Z,14.50
2022-12-31T17:19:01.945Z,14.30
2022-12-31T17:21:30.906Z,14.17
2022-12-31T17:24:04.728Z,14.13
2022-12-31T17:26:33.577Z,14.14
2022-12-31T17:29:02.155Z,14.18
2022-12-31T17:31:33.636Z,14.07
2022-12-31T17:34:06.428Z,14.01
2022-12-31T17:36:33.153Z,14.02
2022-12-31T17:39:19.395Z,14.18
2022-12-31T17:41:49.648Z,13.95
2022-12-31T17:44:21.615Z,14.15
2022-12-31T17:46:50.252Z,14.19
2022-12-31T17:49:21.838Z,13.91
2022-12-31T17:51:48.489Z,14.08
2022-12-31T17:54:17.094Z,13.91
2022-12-31T17:56:44.812Z,13.77
2022-12-31T17:59:37.703Z,13.61
2022-12-31T18:02:05.452Z,13.51
2022-12-31T18:04:32.127Z,13.16
2022-12-31T18:06:58.738Z,13.40
2022-12-31T18:09:25.384Z,13.53
2022-12-31T18:11:55.516Z,13.45
2022-12-31T18:14:23.528Z,13.16
2022-12-31T18:16:50.132Z,13.36
2022-12-31T18:19:45.916Z,13.41
2022-12-31T18:22:03.473Z,13.29
2022-12-31T18:24:30.063Z,12.76
2022-12-31T18:26:56.718Z,12.94
2022-12-31T18:29:23.406Z,12.91
2022-12-31T18:31:50.811Z,13.04
2022-12-31T18:34:18.523Z,12.91
2022-12-31T18:36:45.607Z,13.07
2022-12-31T18:39:12.269Z,12.81
2022-12-31T18:41:49.662Z,12.96
2022-12-31T18:44:16.908Z,12.91
2022-12-31T18:46:43.516Z,12.70
2022-12-31T18:49:10.140Z,12.66
2022-12-31T18:51:36.750Z,12.39
2022-12-31T18:54:04.751Z,12.26
2022-12-31T18:56:31.500Z,12.29
2022-12-31T18:58:59.760Z,12.13
2022-12-31T19:01:29.257Z,12.17
2022-12-31T19:03:58.540Z,12.10
2022-12-31T19:06:25.956Z,12.24
2022-12-31T19:08:53.108Z,11.59
2022-12-31T19:11:20.942Z,11.36
2022-12-31T19:13:48.277Z,11.85
2022-12-31T19:16:15.309Z,12.05
2022-12-31T19:18:42.409Z,11.64
2022-12-31T19:21:20.735Z,11.77
2022-12-31T19:23:47.357Z,11.74
2022-12-31T19:26:15.579Z,11.45
2022-12-31T19:28:42.940Z,11.19
2022-12-31T19:31:09.626Z,11.40
2022-12-31T19:33:36.592Z,11.43
2022-12-31T19:36:04.627Z,11.50
2022-12-31T19:38:32.595Z,11.32
2022-12-31T19:40:59.588Z,11.47
2022-12-31T19:43:26.229Z,11.51
2022-12-31T19:45:53.106Z,11.39
2022-12-31T19:48:27.184Z,11.52
2022-12-31T19:50:58.841Z,11.19
2022-12-31T19:53:27.566Z,11.42
2022-12-31T19:55:54.462Z,11.21
2022-12-31T19:58:25.412Z,11.43
2022-12-31T20:01:02.025Z,11.46
2022-12-31T20:03:31.205Z,11.40
2022-12-31T20:06:07.292Z,11.29
2022-12-31T20:08:35.457Z,10.96
2022-12-31T20:11:12.773Z,11.04
2022-12-31T20:13:40.990Z,11.18
2022-12-31T20:16:10.037Z,11.37
2022-12-31T20:18:38.158Z,11.38
2022-12-31T20:21:09.146Z,11.32
2022-12-31T20:23:35.734Z,11.37
2022-12-31T20:26:02.679Z,11.38
2022-12-31T20:28:29.930Z,11.38
2022-12-31T20:30:56.953Z,11.24
2022-12-31T20:33:23.983Z,11.24
2022-12-31T20:35:50.741Z,11.20
2022-12-31T20:38:17.360Z,11.25
2022-12-31T20:40:46.926Z,11.31
2022-12-31T20:43:14.199Z,11.07
2022-12-31T20:45:41.778Z,11.10
2022-12-31T20:48:08.600Z,11.02
2022-12-31T20:50:35.421Z,10.85
2022-12-31T20:53:02.529Z,10.93
2022-12-31T20:55:30.975Z,11.04
2022-12-31T20:57:57.614Z,11.07
2022-12-31T21:00:24.291Z,10.81
2022-12-31T21:03:00.411Z,10.92
2022-12-31T21:05:31.252Z,11.00
2022-12-31T21:07:58.482Z,11.09
2022-12-31T21:10:25.156Z,10.98
2022-12-31T21:12:54.535Z,10.93
2022-12-31T21:15:21.805Z,10.88
2022-12-31T21:17:48.599Z,10.82
2022-12-31T21:20:15.295Z,10.61
2022-12-31T21:22:41.962Z,10.83
2022-12-31T21:25:10.588Z,10.77
2022-12-31T21:27:37.339Z,10.71
2022-12-31T21:30:20.752Z,10.86
2022-12-31T21:32:48.152Z,10.57
2022-12-31T21:38:02.444Z,10.76
2022-12-31T21:40:30.316Z,10.69
2022-12-31T21:42:57.133Z,10.68
2022-12-31T21:45:24.653Z,10.59
2022-12-31T21:48:10.033Z,10.69
2022-12-31T21:50:36.738Z,10.69
2022-12-31T21:53:03.902Z,10.58
2022-12-31T21:55:48.944Z,10.34
2022-12-31T21:58:32.036Z,10.19
2022-12-31T22:01:18.443Z,9.93
2022-12-31T22:03:45.560Z,9.98
2022-12-31T22:06:16.171Z,10.06
2022-12-31T22:08:44.851Z,9.98
2022-12-31T22:11:13.164Z,10.11
2022-12-31T22:13:40.363Z,10.10
2022-12-31T22:16:07.977Z,10.31
2022-12-31T22:18:38.940Z,10.36
2022-12-31T22:21:23.059Z,10.18
2022-12-31T22:23:52.493Z,10.24
2022-12-31T22:26:21.971Z,10.20
2022-12-31T22:28:49.317Z,10.31
2022-12-31T22:31:18.668Z,10.30
2022-12-31T22:33:45.962Z,10.38
2022-12-31T22:36:18.190Z,10.40
2022-12-31T22:38:44.965Z,10.23
2022-12-31T22:41:17.774Z,10.05
2022-12-31T22:43:47.657Z,10.18
2022-12-31T22:46:20.021Z,10.22
2022-12-31T22:48:47.205Z,10.02
2022-12-31T22:51:14.965Z,9.79
2022-12-31T22:53:43.484Z,9.58
2022-12-31T22:56:12.509Z,9.80
2022-12-31T22:58:39.163Z,10.00
2022-12-31T23:01:16.950Z,10.06
2022-12-31T23:03:43.831Z,9.91
2022-12-31T23:06:10.747Z,10.01
2022-12-31T23:08:37.387Z,10.11
2022-12-31T23:11:09.512Z,9.86
2022-12-31T23:13:59.861Z,9.61
2022-12-31T23:16:48.046Z,9.38
2022-12-31T23:19:34.113Z,9.55
2022-12-31T23:22:19.836Z,9.47
2022-12-31T23:24:46.477Z,9.42
2022-12-31T23:27:13.351Z,9.40
2022-12-31T23:29:46.628Z,9.60
2022-12-31T23:32:15.843Z,9.61
2022-12-31T23:34:43.183Z,9.38
2022-12-31T23:37:10.093Z,9.30
2022-12-31T23:39:36.748Z,9.44
2022-12-31T23:42:03.540Z,9.52
2022-12-31T23:44:30.140Z,9.55
2022-12-31T23:46:56.920Z,9.45
2022-12-31T23:49:23.806Z,9.42
2022-12-31T23:51:50.441Z,9.43
2022-12-31T23:54:17.905Z,9.49
2022-12-31T23:56:44.765Z,9.67
2022-12-31T23:59:12.768Z,9.50
